createdAt,value
2023-02-17T00:00:11.360Z,49.24
2023-02-17T00:02:58.805Z,49.39
2023-02-17T00:05:26.277Z,49.70
2023-02-17T00:07:53.403Z,49.49
2023-02-17T00:10:20.176Z,49.67
2023-02-17T00:12:47.253Z,49.26
2023-02-17T00:15:13.980Z,49.90
2023-02-17T00:17:41.051Z,49.72
2023-02-17T00:20:09.284Z,49.41
2023-02-17T00:22:36.381Z,49.50
2023-02-17T00:25:03.143Z,49.64
2023-02-17T00:27:30.226Z,49.27
2023-02-17T00:29:56.997Z,49.63
2023-02-17T00:32:24.094Z,49.50
2023-02-17T00:34:52.631Z,49.54
2023-02-17T00:37:19.647Z,49.68
2023-02-17T00:39:46.409Z,49.68
2023-02-17T00:42:13.480Z,49.55
2023-02-17T00:44:40.242Z,49.61
2023-02-17T00:47:07.328Z,50.00
2023-02-17T00:49:34.106Z,49.62
2023-02-17T00:52:01.882Z,49.66
2023-02-17T00:54:29.290Z,49.69
2023-02-17T00:56:56.465Z,49.91
2023-02-17T00:59:23.217Z,49.92
2023-02-17T01:01:50.343Z,49.81
2023-02-17T01:04:17.147Z,49.83
2023-02-17T01:06:44.264Z,49.62
2023-02-17T01:09:13.524Z,49.79
2023-02-17T01:11:40.920Z,49.99
2023-02-17T01:14:07.906Z,49.66
2023-02-17T01:16:38.692Z,50.01
2023-02-17T01:19:09.043Z,49.78
2023-02-17T01:21:36.132Z,49.77
2023-02-17T01:24:04.666Z,49.66
2023-02-17T01:26:32.446Z,49.78
2023-02-17T01:28:59.217Z,49.81
2023-02-17T01:31:27.266Z,50.03
2023-02-17T01:33:56.087Z,49.81
2023-02-17T01:36:23.137Z,49.94
2023-02-17T01:38:50.034Z,49.70
2023-02-17T01:41:17.919Z,49.61
2023-02-17T01:44:30.082Z,49.68
2023-02-17T01:46:57.239Z,49.81
2023-02-17T01:49:26.934Z,49.93
2023-02-17T01:52:21.235Z,49.63
2023-02-17T01:54:53.823Z,49.82
2023-02-17T01:57:23.236Z,49.95
2023-02-17T01:59:50.554Z,49.88
2023-02-17T02:02:17.883Z,50.11
2023-02-17T02:04:46.037Z,49.92
2023-02-17T02:07:21.579Z,49.92
2023-02-17T02:09:53.154Z,50.05
2023-02-17T02:12:28.452Z,50.03
2023-02-17T02:14:57.424Z,49.90
2023-02-17T02:17:50.602Z,49.72
2023-02-17T02:20:41.658Z,50.09
2023-02-17T02:23:46.315Z,49.91
2023-02-17T02:26:31.143Z,50.00
2023-02-17T02:29:19.638Z,50.10
2023-02-17T02:32:34.813Z,50.00
2023-02-17T02:35:15.542Z,49.93
2023-02-17T02:38:07.217Z,49.89
2023-02-17T02:40:36.778Z,49.86
2023-02-17T02:43:03.692Z,50.22
2023-02-17T02:45:30.863Z,50.04
2023-02-17T02:47:57.817Z,50.02
2023-02-17T02:50:50.576Z,50.45
2023-02-17T02:53:36.405Z,50.17
2023-02-17T02:56:27.096Z,50.36
2023-02-17T02:59:31.739Z,50.21
2023-02-17T03:02:11.250Z,50.23
2023-02-17T03:04:38.972Z,50.20
2023-02-17T03:07:21.191Z,49.95
2023-02-17T03:09:51.745Z,50.16
2023-02-17T03:12:19.490Z,50.26
2023-02-17T03:14:47.911Z,50.23
2023-02-17T03:17:14.948Z,50.19
2023-02-17T03:19:41.741Z,50.29
2023-02-17T03:22:14.266Z,50.20
2023-02-17T03:24:41.073Z,50.39
2023-02-17T03:27:08.126Z,50.16
2023-02-17T03:29:34.888Z,50.23
2023-02-17T03:32:01.985Z,50.25
2023-02-17T03:34:28.755Z,50.70
2023-02-17T03:36:55.905Z,50.66
2023-02-17T03:39:22.685Z,50.65
2023-02-17T03:41:51.697Z,50.75
2023-02-17T03:44:18.811Z,50.66
2023-02-17T03:46:46.393Z,50.40
2023-02-17T03:49:13.234Z,50.32
2023-02-17T03:51:40.342Z,50.36
2023-02-17T03:54:07.118Z,50.25
2023-02-17T03:56:34.159Z,50.59
2023-02-17T03:59:00.957Z,50.39
2023-02-17T04:01:28.018Z,50.66
2023-02-17T04:03:54.931Z,50.67
2023-02-17T04:06:22.141Z,50.52
2023-02-17T04:08:48.930Z,50.60
2023-02-17T04:11:16.107Z,50.41
2023-02-17T04:13:42.884Z,50.80
2023-02-17T04:16:10.267Z,50.54
2023-02-17T04:18:37.497Z,50.71
2023-02-17T04:21:05.143Z,50.72
2023-02-17T04:23:31.952Z,50.79
2023-02-17T04:25:59.004Z,50.76
2023-02-17T04:28:26.387Z,50.59
2023-02-17T04:30:53.595Z,50.60
2023-02-17T04:33:20.397Z,50.60
2023-02-17T04:35:47.546Z,50.49
2023-02-17T04:38:14.337Z,50.66
2023-02-17T04:40:41.550Z,50.51
2023-02-17T04:43:08.592Z,50.96
2023-02-17T04:45:36.721Z,50.70
2023-02-17T04:48:03.703Z,50.70
2023-02-17T04:50:30.824Z,50.94
2023-02-17T04:52:57.569Z,50.62
2023-02-17T04:55:24.646Z,50.81
2023-02-17T04:57:51.369Z,50.83
2023-02-17T05:00:18.724Z,50.76
2023-02-17T05:02:45.461Z,50.79
2023-02-17T05:05:15.324Z,50.93
2023-02-17T05:07:42.901Z,51.06
2023-02-17T05:10:10.221Z,50.83
2023-02-17T05:12:36.981Z,50.75
2023-02-17T05:15:04.440Z,51.09
2023-02-17T05:17:31.264Z,51.00
2023-02-17T05:19:58.587Z,50.96
2023-02-17T05:22:25.518Z,50.83
2023-02-17T05:24:52.788Z,50.95
2023-02-17T05:27:19.564Z,51.00
2023-02-17T05:29:46.714Z,51.24
2023-02-17T05:32:13.478Z,50.99
2023-02-17T05:34:40.611Z,50.69
2023-02-17T05:37:07.346Z,50.89
2023-02-17T05:39:34.420Z,51.12
2023-02-17T05:42:01.189Z,50.80
2023-02-17T05:44:28.319Z,51.21
2023-02-17T05:46:55.066Z,50.93
2023-02-17T05:49:22.192Z,51.00
2023-02-17T05:51:48.949Z,51.11
2023-02-17T05:54:15.981Z,50.93
2023-02-17T05:56:42.763Z,51.34
2023-02-17T05:59:09.955Z,51.21
2023-02-17T06:01:37.706Z,51.22
2023-02-17T06:04:04.914Z,50.98
2023-02-17T06:06:31.685Z,51.08
2023-02-17T06:08:58.824Z,51.19
2023-02-17T06:11:25.717Z,51.13
2023-02-17T06:13:52.754Z,51.17
2023-02-17T06:16:20.066Z,51.08
2023-02-17T06:18:47.174Z,51.02
2023-02-17T06:21:13.998Z,51.45
2023-02-17T06:23:41.032Z,51.25
2023-02-17T06:26:08.250Z,51.37
2023-02-17T06:28:35.345Z,51.18
2023-02-17T06:31:02.229Z,51.11
2023-02-17T06:33:29.387Z,51.17
2023-02-17T06:35:56.399Z,51.19
2023-02-17T06:38:23.576Z,51.22
2023-02-17T06:40:50.320Z,51.37
2023-02-17T06:43:17.387Z,51.22
2023-02-17T06:45:44.241Z,51.18
2023-02-17T06:48:11.373Z,51.52
2023-02-17T06:50:38.285Z,51.33
2023-02-17T06:53:05.489Z,51.08
2023-02-17T06:55:32.313Z,51.32
2023-02-17T06:57:59.402Z,51.40
2023-02-17T07:00:27.123Z,51.18
2023-02-17T07:02:54.406Z,51.27
2023-02-17T07:05:21.356Z,51.44
2023-02-17T07:07:48.386Z,51.24
2023-02-17T07:10:15.176Z,51.09
2023-02-17T07:12:42.211Z,51.43
2023-02-17T07:15:12.012Z,50.88
2023-02-17T07:17:39.583Z,51.13
2023-02-17T07:20:07.158Z,51.46
2023-02-17T07:22:34.216Z,50.80
2023-02-17T07:25:01.031Z,51.46
2023-02-17T07:27:28.198Z,51.34
2023-02-17T07:29:55.602Z,51.06
2023-02-17T07:32:22.849Z,51.33
2023-02-17T07:34:49.621Z,51.48
2023-02-17T07:37:16.740Z,51.15
2023-02-17T07:39:43.619Z,51.34
2023-02-17T07:42:11.486Z,51.23
2023-02-17T07:44:38.221Z,51.37
2023-02-17T07:47:05.302Z,51.23
2023-02-17T07:49:32.129Z,51.05
2023-02-17T07:51:59.209Z,50.97
2023-02-17T07:54:26.075Z,51.38
2023-02-17T07:56:53.187Z,50.95
2023-02-17T07:59:19.971Z,50.96
2023-02-17T08:01:47.179Z,50.93
2023-02-17T08:04:13.973Z,50.85
2023-02-17T08:06:41.094Z,51.31
2023-02-17T08:09:28.422Z,51.05
2023-02-17T08:12:13.962Z,51.11
2023-02-17T08:14:40.860Z,50.95
2023-02-17T08:17:08.025Z,51.03
2023-02-17T08:19:47.426Z,51.16
2023-02-17T08:22:16.099Z,50.86
2023-02-17T08:24:42.994Z,50.88
2023-02-17T08:27:10.115Z,51.19
2023-02-17T08:29:36.919Z,51.41
2023-02-17T08:32:04.198Z,51.59
2023-02-17T08:34:33.912Z,51.26
2023-02-17T08:37:01.686Z,51.60
2023-02-17T08:39:28.701Z,51.61
2023-02-17T08:41:55.906Z,51.60
2023-02-17T08:44:22.898Z,51.83
2023-02-17T08:46:50.580Z,51.58
2023-02-17T08:49:18.911Z,51.71
2023-02-17T08:51:46.104Z,51.84
2023-02-17T08:54:12.937Z,51.83
2023-02-17T08:56:40.296Z,51.75
2023-02-17T08:59:07.747Z,51.92
2023-02-17T09:01:35.492Z,51.72
2023-02-17T09:04:02.891Z,51.53
2023-02-17T09:06:50.125Z,51.55
2023-02-17T09:09:18.020Z,51.38
2023-02-17T09:11:45.366Z,51.93
2023-02-17T09:14:12.358Z,51.70
2023-02-17T09:16:41.417Z,51.78
2023-02-17T09:19:08.445Z,51.47
2023-02-17T09:21:35.529Z,51.47
2023-02-17T09:24:02.293Z,51.62
2023-02-17T09:26:29.684Z,51.69
2023-02-17T09:28:57.956Z,52.14
2023-02-17T09:31:26.157Z,52.15
2023-02-17T09:33:53.152Z,51.88
2023-02-17T09:36:28.415Z,52.10
2023-02-17T09:38:55.337Z,52.24
2023-02-17T09:41:42.369Z,52.09
2023-02-17T09:44:39.429Z,52.44
2023-02-17T09:47:16.370Z,52.26
2023-02-17T09:49:45.702Z,52.49
2023-02-17T09:52:31.676Z,52.46
2023-02-17T09:55:06.815Z,52.58
2023-02-17T09:57:40.461Z,52.21
2023-02-17T10:00:08.863Z,52.42
2023-02-17T10:02:39.429Z,52.35
2023-02-17T10:05:07.883Z,52.47
2023-02-17T10:07:47.344Z,52.53
2023-02-17T10:10:35.697Z,52.52
2023-02-17T10:13:02.963Z,52.47
2023-02-17T10:15:32.182Z,52.46
2023-02-17T10:18:11.803Z,52.24
2023-02-17T10:20:42.922Z,52.36
2023-02-17T10:23:19.344Z,52.32
2023-02-17T10:26:01.468Z,52.25
2023-02-17T10:28:56.328Z,52.72
2023-02-17T10:31:37.871Z,52.79
2023-02-17T10:34:38.091Z,52.48
2023-02-17T10:37:13.145Z,52.66
2023-02-17T10:39:48.726Z,52.64
2023-02-17T10:42:28.663Z,52.54
2023-02-17T10:45:00.885Z,52.48
2023-02-17T10:47:27.690Z,52.32
2023-02-17T10:49:55.224Z,52.30
2023-02-17T10:52:24.505Z,52.69
2023-02-17T10:54:59.930Z,52.51
2023-02-17T10:57:30.184Z,52.70
2023-02-17T10:59:57.284Z,52.81
2023-02-17T11:02:41.329Z,52.53
2023-02-17T11:05:09.157Z,52.46
2023-02-17T11:07:37.311Z,52.80
2023-02-17T11:10:37.563Z,52.86
2023-02-17T11:13:05.082Z,52.83
2023-02-17T11:15:43.179Z,52.79
2023-02-17T11:18:11.843Z,52.92
2023-02-17T11:20:39.066Z,52.66
2023-02-17T11:23:16.601Z,53.10
2023-02-17T11:25:43.798Z,53.09
2023-02-17T11:28:14.755Z,52.78
2023-02-17T11:30:53.012Z,52.88
2023-02-17T11:33:22.702Z,52.74
2023-02-17T11:35:55.852Z,53.03
2023-02-17T11:38:28.132Z,53.04
2023-02-17T11:41:00.297Z,52.83
2023-02-17T11:43:31.285Z,52.86
2023-02-17T11:46:01.144Z,53.08
2023-02-17T11:48:28.446Z,53.12
2023-02-17T11:51:15.016Z,53.08
2023-02-17T11:54:17.176Z,53.19
2023-02-17T11:57:07.418Z,52.95
2023-02-17T11:59:45.283Z,53.02
2023-02-17T12:02:38.262Z,52.77
2023-02-17T12:05:20.517Z,53.19
2023-02-17T12:08:23.977Z,53.15
2023-02-17T12:11:09.752Z,52.97
2023-02-17T12:13:51.752Z,53.16
2023-02-17T12:16:21.770Z,52.95
2023-02-17T12:19:03.776Z,53.07
2023-02-17T12:21:37.075Z,53.14
2023-02-17T12:24:22.073Z,53.27
2023-02-17T12:27:28.072Z,53.24
2023-02-17T12:30:31.147Z,53.27
2023-02-17T12:33:32.186Z,53.08
2023-02-17T12:36:02.474Z,53.36
2023-02-17T12:38:34.846Z,53.28
2023-02-17T12:41:17.835Z,53.29
2023-02-17T12:44:00.153Z,53.13
2023-02-17T12:46:41.407Z,53.38
2023-02-17T12:49:20.629Z,53.43
2023-02-17T12:51:56.643Z,53.34
2023-02-17T12:54:27.084Z,53.30
2023-02-17T12:57:10.578Z,53.43
2023-02-17T12:59:41.929Z,53.20
2023-02-17T13:02:14.033Z,53.41
2023-02-17T13:04:42.866Z,53.62
2023-02-17T13:07:21.428Z,53.28
2023-02-17T13:09:49.166Z,53.46
2023-02-17T13:12:17.445Z,53.27
2023-02-17T13:14:58.616Z,53.40
2023-02-17T13:17:25.399Z,53.41
2023-02-17T13:20:04.616Z,53.42
2023-02-17T13:22:31.436Z,53.24
2023-02-17T13:24:58.495Z,53.29
2023-02-17T13:27:28.307Z,53.64
2023-02-17T13:30:02.789Z,53.54
2023-02-17T13:32:31.247Z,53.33
2023-02-17T13:35:08.386Z,53.42
2023-02-17T13:37:35.173Z,53.11
2023-02-17T13:40:24.227Z,53.22
2023-02-17T13:42:52.086Z,53.24
2023-02-17T13:45:37.971Z,53.24
2023-02-17T13:48:19.680Z,53.06
2023-02-17T13:50:48.405Z,53.27
2023-02-17T13:53:24.365Z,53.21
2023-02-17T13:55:51.939Z,53.51
2023-02-17T13:58:23.433Z,53.32
2023-02-17T14:00:50.585Z,53.29
2023-02-17T14:03:31.183Z,53.39
2023-02-17T14:05:59.099Z,53.21
2023-02-17T14:08:42.528Z,53.60
2023-02-17T14:11:10.555Z,53.37
2023-02-17T14:13:38.532Z,53.64
2023-02-17T14:16:07.345Z,53.85
2023-02-17T14:18:36.555Z,53.61
2023-02-17T14:21:11.723Z,53.23
2023-02-17T14:23:46.362Z,53.37
2023-02-17T14:26:35.151Z,53.44
2023-02-17T14:29:06.491Z,53.83
2023-02-17T14:31:49.972Z,54.07
2023-02-17T14:34:28.461Z,53.68
2023-02-17T14:36:55.812Z,53.74
2023-02-17T14:39:22.599Z,53.91
2023-02-17T14:41:49.634Z,54.02
2023-02-17T14:44:16.646Z,53.76
2023-02-17T14:46:43.817Z,53.78
2023-02-17T14:49:10.656Z,53.67
2023-02-17T14:51:37.969Z,53.68
2023-02-17T14:54:15.824Z,53.77
2023-02-17T14:57:03.995Z,53.97
2023-02-17T14:59:31.532Z,53.93
2023-02-17T15:01:58.632Z,53.72
2023-02-17T15:04:25.541Z,54.01
2023-02-17T15:06:54.697Z,53.90
2023-02-17T15:09:28.102Z,54.04
2023-02-17T15:11:55.989Z,54.08
2023-02-17T15:14:22.835Z,53.78
2023-02-17T15:16:50.163Z,53.91
2023-02-17T15:19:19.560Z,53.63
2023-02-17T15:21:50.965Z,53.97
2023-02-17T15:24:23.219Z,53.78
2023-02-17T15:26:50.327Z,53.62
2023-02-17T15:29:18.664Z,53.75
2023-02-17T15:31:46.414Z,53.67
2023-02-17T15:34:17.577Z,53.66
2023-02-17T15:36:44.900Z,53.83
2023-02-17T15:39:15.588Z,53.83
2023-02-17T15:41:43.515Z,53.95
2023-02-17T15:44:27.474Z,54.05
2023-02-17T15:46:55.276Z,54.19
2023-02-17T15:49:22.535Z,53.82
2023-02-17T15:51:49.667Z,54.09
2023-02-17T15:54:19.308Z,53.95
2023-02-17T15:56:49.413Z,54.08
2023-02-17T15:59:23.596Z,54.01
2023-02-17T16:01:56.104Z,53.96
2023-02-17T16:04:22.899Z,54.04
2023-02-17T16:06:49.996Z,54.20
2023-02-17T16:09:16.789Z,54.08
2023-02-17T16:11:47.657Z,54.14
2023-02-17T16:14:23.061Z,54.14
2023-02-17T16:16:50.167Z,54.07
2023-02-17T16:19:16.926Z,54.23
2023-02-17T16:21:43.962Z,54.36
2023-02-17T16:24:10.762Z,54.25
2023-02-17T16:26:37.934Z,54.06
2023-02-17T16:29:13.081Z,54.20
2023-02-17T16:31:40.328Z,54.42
2023-02-17T16:34:07.165Z,54.50
2023-02-17T16:36:34.737Z,54.41
2023-02-17T16:39:04.053Z,54.44
2023-02-17T16:41:31.128Z,54.28
2023-02-17T16:43:57.994Z,54.48
2023-02-17T16:46:29.752Z,54.21
2023-02-17T16:48:57.282Z,54.53
2023-02-17T16:51:24.405Z,54.58
2023-02-17T16:53:51.207Z,54.61
2023-02-17T16:56:21.851Z,54.37
2023-02-17T16:58:48.629Z,54.65
2023-02-17T17:01:15.848Z,54.67
2023-02-17T17:03:42.997Z,54.55
2023-02-17T17:06:20.625Z,54.61
2023-02-17T17:08:47.552Z,54.65
2023-02-17T17:11:16.034Z,54.48
2023-02-17T17:13:44.126Z,55.05
2023-02-17T17:16:16.159Z,54.86
2023-02-17T17:18:43.254Z,54.74
2023-02-17T17:21:14.664Z,54.94
2023-02-17T17:23:41.541Z,55.04
2023-02-17T17:26:25.177Z,54.88
2023-02-17T17:28:52.050Z,54.89
2023-02-17T17:31:20.230Z,54.96
2023-02-17T17:33:47.960Z,54.95
2023-02-17T17:36:18.123Z,54.90
2023-02-17T17:38:45.119Z,55.01
2023-02-17T17:41:12.605Z,54.57
2023-02-17T17:43:39.402Z,55.01
2023-02-17T17:46:12.104Z,54.90
2023-02-17T17:48:38.911Z,54.81
2023-02-17T17:51:06.171Z,54.71
2023-02-17T17:53:33.063Z,54.86
2023-02-17T17:56:00.192Z,55.04
2023-02-17T17:58:27.016Z,55.13
2023-02-17T18:00:54.632Z,54.91
2023-02-17T18:03:21.489Z,55.29
2023-02-17T18:05:48.557Z,55.23
2023-02-17T18:08:17.535Z,55.06
2023-02-17T18:10:44.638Z,55.29
2023-02-17T18:13:11.519Z,55.36
2023-02-17T18:15:39.436Z,55.64
2023-02-17T18:18:06.219Z,55.24
2023-02-17T18:20:33.368Z,55.55
2023-02-17T18:23:00.167Z,55.47
2023-02-17T18:25:27.296Z,55.61
2023-02-17T18:27:55.832Z,55.73
2023-02-17T18:30:27.240Z,55.77
2023-02-17T18:32:54.214Z,55.56
2023-02-17T18:35:21.414Z,55.58
2023-02-17T18:37:48.382Z,55.82
2023-02-17T18:40:16.959Z,55.89
2023-02-17T18:42:47.630Z,56.17
2023-02-17T18:45:15.752Z,55.88
2023-02-17T18:47:43.079Z,56.24
2023-02-17T18:50:11.435Z,56.11
2023-02-17T18:52:38.930Z,55.81
2023-02-17T18:55:06.399Z,56.32
2023-02-17T18:57:33.421Z,56.21
2023-02-17T19:00:00.764Z,56.43
2023-02-17T19:02:27.598Z,56.08
2023-02-17T19:04:55.245Z,56.15
2023-02-17T19:07:22.372Z,55.97
2023-02-17T19:09:53.595Z,56.40
2023-02-17T19:12:20.637Z,56.44
2023-02-17T19:14:53.122Z,56.18
2023-02-17T19:17:20.010Z,56.19
2023-02-17T19:19:47.074Z,56.23
2023-02-17T19:22:13.890Z,56.33
2023-02-17T19:24:42.100Z,56.24
2023-02-17T19:27:09.084Z,56.46
2023-02-17T19:29:36.182Z,56.30
2023-02-17T19:32:03.408Z,56.55
2023-02-17T19:34:31.316Z,55.80
2023-02-17T19:36:58.408Z,56.68
2023-02-17T19:39:25.583Z,55.75
2023-02-17T19:41:52.441Z,55.99
2023-02-17T19:44:20.119Z,56.25
2023-02-17T19:46:47.131Z,56.14
2023-02-17T19:49:14.326Z,55.75
2023-02-17T19:51:41.101Z,55.96
2023-02-17T19:54:08.368Z,55.85
2023-02-17T19:56:36.412Z,55.93
2023-02-17T19:59:03.517Z,55.69
2023-02-17T20:01:32.086Z,56.00
2023-02-17T20:03:59.580Z,56.37
2023-02-17T20:06:28.662Z,56.42
2023-02-17T20:09:06.672Z,55.88
2023-02-17T20:11:33.510Z,55.83
2023-02-17T20:14:01.043Z,55.81
2023-02-17T20:16:28.225Z,55.54
2023-02-17T20:18:55.718Z,55.69
2023-02-17T20:21:24.453Z,55.90
2023-02-17T20:23:51.996Z,55.66
2023-02-17T20:26:21.960Z,55.95
2023-02-17T20:28:49.487Z,56.10
2023-02-17T20:31:16.388Z,56.00
2023-02-17T20:33:43.587Z,56.24
2023-02-17T20:36:11.747Z,55.68
2023-02-17T20:38:39.638Z,55.96
2023-02-17T20:41:10.153Z,55.81
2023-02-17T20:43:37.748Z,55.87
2023-02-17T20:46:05.414Z,55.80
2023-02-17T20:48:33.044Z,55.88
2023-02-17T20:50:59.888Z,55.77
2023-02-17T20:53:27.086Z,55.85
2023-02-17T20:55:53.922Z,56.05
2023-02-17T20:58:21.023Z,56.12
2023-02-17T21:00:48.488Z,55.37
2023-02-17T21:03:15.703Z,55.57
2023-02-17T21:05:42.624Z,55.71
2023-02-17T21:08:09.940Z,55.64
2023-02-17T21:10:36.929Z,55.68
2023-02-17T21:13:04.017Z,55.85
2023-02-17T21:15:30.817Z,55.84
2023-02-17T21:17:57.920Z,55.96
2023-02-17T21:20:24.663Z,55.62
2023-02-17T21:22:51.789Z,55.69
2023-02-17T21:25:18.728Z,55.99
2023-02-17T21:27:45.812Z,55.95
2023-02-17T21:30:13.153Z,55.71
2023-02-17T21:32:40.446Z,55.65
2023-02-17T21:35:09.376Z,55.70
2023-02-17T21:37:38.861Z,55.92
2023-02-17T21:40:07.556Z,55.74
2023-02-17T21:42:55.838Z,55.68
2023-02-17T21:45:23.072Z,55.50
2023-02-17T21:47:50.286Z,55.63
2023-02-17T21:50:18.155Z,55.88
2023-02-17T21:52:45.268Z,55.86
2023-02-17T21:55:12.087Z,55.94
2023-02-17T21:57:39.176Z,55.70
2023-02-17T22:00:06.803Z,55.75
2023-02-17T22:02:35.948Z,55.68
2023-02-17T22:05:02.833Z,56.00
2023-02-17T22:07:29.965Z,55.85
2023-02-17T22:09:57.910Z,55.50
2023-02-17T22:12:24.932Z,55.72
2023-02-17T22:14:51.668Z,55.79
2023-02-17T22:17:18.825Z,56.00
2023-02-17T22:19:45.612Z,55.81
2023-02-17T22:22:12.687Z,55.88
2023-02-17T22:24:39.431Z,55.82
2023-02-17T22:27:06.571Z,55.76
2023-02-17T22:29:33.287Z,55.77
2023-02-17T22:32:00.421Z,55.86
2023-02-17T22:34:28.765Z,55.51
2023-02-17T22:36:55.959Z,55.95
2023-02-17T22:39:22.788Z,56.06
2023-02-17T22:41:49.877Z,55.83
2023-02-17T22:44:16.671Z,55.82
2023-02-17T22:46:43.787Z,55.86
2023-02-17T22:49:10.561Z,55.48
2023-02-17T22:51:39.097Z,55.71
2023-02-17T22:54:06.397Z,55.89
2023-02-17T22:56:33.455Z,55.98
2023-02-17T22:59:04.383Z,56.14
2023-02-17T23:01:33.201Z,55.71
2023-02-17T23:04:00.048Z,55.87
2023-02-17T23:06:29.589Z,55.81
2023-02-17T23:08:56.448Z,56.28
2023-02-17T23:11:44.788Z,55.75
2023-02-17T23:14:12.110Z,55.95
2023-02-17T23:16:39.333Z,55.84
2023-02-17T23:19:10.450Z,55.88
2023-02-17T23:21:37.628Z,55.97
2023-02-17T23:24:04.614Z,55.85
2023-02-17T23:26:31.780Z,55.92
2023-02-17T23:28:58.654Z,56.00
2023-02-17T23:31:25.955Z,55.80
2023-02-17T23:33:52.747Z,56.05
2023-02-17T23:36:19.885Z,55.75
2023-02-17T23:38:46.691Z,56.27
2023-02-17T23:41:13.823Z,55.87
2023-02-17T23:43:41.320Z,55.75
2023-02-17T23:46:08.634Z,56.15
2023-02-17T23:48:35.779Z,55.98
2023-02-17T23:51:04.277Z,55.97
2023-02-17T23:53:31.310Z,56.00
2023-02-17T23:56:09.049Z,56.09
2023-02-17T23:58:36.082Z,56.15
